createdAt,value
2024-01-25T00:00:48.868Z,27.08
2024-01-25T00:03:15.950Z,26.63
2024-01-25T00:05:44.395Z,26.33
2024-01-25T00:08:11.751Z,31.48
2024-01-25T00:10:38.806Z,30.42
2024-01-25T00:13:05.829Z,28.08
2024-01-25T00:15:32.907Z,23.15
2024-01-25T00:18:00.067Z,28.40
2024-01-25T00:20:27.143Z,28.48
2024-01-25T00:22:54.181Z,28.45
2024-01-25T00:25:21.341Z,27.40
2024-01-25T00:27:48.523Z,24.63
2024-01-25T00:30:15.866Z,20.67
2024-01-25T00:32:44.017Z,22.60
2024-01-25T00:35:14.551Z,22.17
2024-01-25T00:37:42.626Z,22.27
2024-01-25T00:40:10.587Z,19.42
2024-01-25T00:42:44.514Z,20.90
2024-01-25T00:45:12.902Z,30.27
2024-01-25T00:47:40.402Z,23.70
2024-01-25T00:50:08.341Z,22.05
2024-01-25T00:52:36.730Z,20.38
2024-01-25T00:55:04.799Z,25.65
2024-01-25T00:57:32.520Z,26.02
2024-01-25T01:00:01.568Z,22.77
2024-01-25T01:02:36.234Z,21.13
2024-01-25T01:05:03.758Z,27.08
2024-01-25T01:07:31.356Z,29.00
2024-01-25T01:10:01.467Z,25.20
2024-01-25T01:12:28.603Z,22.50
2024-01-25T01:14:55.566Z,21.45
2024-01-25T01:17:22.908Z,22.15
2024-01-25T01:19:50.207Z,32.95
2024-01-25T01:22:18.037Z,16.88
2024-01-25T01:24:45.066Z,26.52
2024-01-25T01:27:12.162Z,29.98
2024-01-25T01:29:39.276Z,27.33
2024-01-25T01:32:06.696Z,28.08
2024-01-25T01:34:34.120Z,28.38
2024-01-25T01:37:01.360Z,20.42
2024-01-25T01:39:28.506Z,28.42
2024-01-25T01:41:55.746Z,22.92
2024-01-25T01:44:22.789Z,23.00
2024-01-25T01:46:49.951Z,22.33
2024-01-25T01:49:18.152Z,22.25
2024-01-25T01:51:46.077Z,31.63
2024-01-25T01:54:13.207Z,23.80
2024-01-25T01:56:43.242Z,29.38
2024-01-25T01:59:12.470Z,22.83
2024-01-25T02:01:39.876Z,25.90
2024-01-25T02:04:07.251Z,29.02
2024-01-25T02:06:35.234Z,22.92
2024-01-25T02:09:02.729Z,28.35
2024-01-25T02:11:30.220Z,23.15
2024-01-25T02:13:57.780Z,24.27
2024-01-25T02:16:25.330Z,28.85
2024-01-25T02:18:55.278Z,23.60
2024-01-25T02:21:22.583Z,25.02
2024-01-25T02:23:51.415Z,24.67
2024-01-25T02:26:18.437Z,24.75
2024-01-25T02:28:45.465Z,19.10
2024-01-25T02:31:12.766Z,23.10
2024-01-25T02:33:39.867Z,27.67
2024-01-25T02:36:07.399Z,21.77
2024-01-25T02:38:34.374Z,23.17
2024-01-25T02:41:01.417Z,21.90
2024-01-25T02:43:31.385Z,26.52
2024-01-25T02:45:58.567Z,22.30
2024-01-25T02:48:25.605Z,21.60
2024-01-25T02:50:52.567Z,20.50
2024-01-25T02:53:19.545Z,18.55
2024-01-25T02:55:46.548Z,21.27
2024-01-25T02:58:13.775Z,27.70
2024-01-25T03:00:40.895Z,24.40
2024-01-25T03:03:08.037Z,25.50
2024-01-25T03:05:35.920Z,23.10
2024-01-25T03:08:03.071Z,24.42
2024-01-25T03:10:30.503Z,22.88
2024-01-25T03:12:57.622Z,24.63
2024-01-25T03:15:24.648Z,21.10
2024-01-25T03:17:52.227Z,26.15
2024-01-25T03:20:19.501Z,31.40
2024-01-25T03:22:46.591Z,25.77
2024-01-25T03:25:13.774Z,34.50
2024-01-25T03:27:40.852Z,32.47
2024-01-25T03:30:08.709Z,18.60
2024-01-25T03:32:35.897Z,27.00
2024-01-25T03:35:03.406Z,26.15
2024-01-25T03:37:30.579Z,21.13
2024-01-25T03:39:57.737Z,17.95
2024-01-25T03:42:24.854Z,27.55
2024-01-25T03:44:53.263Z,23.45
2024-01-25T03:47:20.261Z,20.77
2024-01-25T03:49:47.638Z,32.83
2024-01-25T03:52:17.921Z,21.58
2024-01-25T03:57:12.051Z,26.73
2024-01-25T03:59:41.352Z,18.55
2024-01-25T04:02:08.500Z,14.93
2024-01-25T04:04:35.568Z,27.05
2024-01-25T04:07:02.695Z,22.52
2024-01-25T04:09:29.783Z,32.20
2024-01-25T04:11:57.471Z,26.52
2024-01-25T04:14:24.696Z,27.77
2024-01-25T04:16:52.124Z,24.52
2024-01-25T04:19:19.531Z,21.02
2024-01-25T04:21:46.663Z,22.05
2024-01-25T04:24:19.616Z,30.02
2024-01-25T04:26:46.797Z,21.52
2024-01-25T04:29:13.844Z,28.40
2024-01-25T04:31:46.131Z,21.25
2024-01-25T04:34:20.064Z,24.65
2024-01-25T04:36:47.164Z,23.05
2024-01-25T04:39:14.263Z,18.38
2024-01-25T04:41:41.282Z,28.58
2024-01-25T04:44:08.375Z,23.52
2024-01-25T04:46:37.827Z,28.17
2024-01-25T04:49:05.233Z,33.20
2024-01-25T04:51:32.599Z,29.70
2024-01-25T04:53:59.625Z,37.50
2024-01-25T04:56:26.715Z,32.22
2024-01-25T04:58:53.794Z,29.80
2024-01-25T05:01:21.090Z,28.42
2024-01-25T05:03:48.393Z,25.35
2024-01-25T05:06:15.485Z,23.95
2024-01-25T05:08:44.442Z,30.52
2024-01-25T05:11:11.963Z,19.38
2024-01-25T05:13:39.023Z,21.05
2024-01-25T05:16:06.291Z,30.30
2024-01-25T05:18:33.570Z,20.55
2024-01-25T05:21:00.782Z,26.85
2024-01-25T05:23:27.848Z,22.50
2024-01-25T05:25:54.946Z,27.58
2024-01-25T05:28:22.180Z,36.60
2024-01-25T05:30:50.124Z,38.70
2024-01-25T05:33:22.437Z,35.53
2024-01-25T05:35:49.517Z,25.75
2024-01-25T05:38:17.459Z,24.58
2024-01-25T05:40:44.580Z,23.58
2024-01-25T05:43:11.998Z,28.77
2024-01-25T05:45:39.116Z,25.80
2024-01-25T05:48:06.819Z,28.88
2024-01-25T05:50:34.418Z,32.72
2024-01-25T05:53:01.441Z,32.63
2024-01-25T05:55:28.599Z,31.52
2024-01-25T05:57:56.224Z,29.52
2024-01-25T06:00:23.628Z,26.05
2024-01-25T06:02:50.710Z,25.80
2024-01-25T06:05:18.200Z,27.05
2024-01-25T06:07:45.579Z,25.00
2024-01-25T06:10:12.811Z,30.88
2024-01-25T06:12:39.980Z,28.60
2024-01-25T06:15:08.345Z,22.73
2024-01-25T06:17:35.415Z,28.80
2024-01-25T06:20:03.945Z,36.47
2024-01-25T06:22:31.141Z,26.35
2024-01-25T06:24:58.209Z,28.75
2024-01-25T06:27:25.141Z,28.70
2024-01-25T06:29:57.924Z,31.02
2024-01-25T06:32:27.046Z,26.33
2024-01-25T06:34:55.026Z,27.83
2024-01-25T06:37:22.383Z,31.77
2024-01-25T06:39:49.466Z,35.70
2024-01-25T06:42:16.960Z,38.55
2024-01-25T06:44:44.332Z,31.95
2024-01-25T06:47:11.546Z,36.28
2024-01-25T06:49:38.718Z,39.53
2024-01-25T06:52:06.526Z,35.13
2024-01-25T06:54:36.187Z,37.92
2024-01-25T06:57:04.155Z,25.98
2024-01-25T06:59:33.797Z,32.78
2024-01-25T07:02:02.816Z,31.58
2024-01-25T07:04:30.845Z,18.83
2024-01-25T07:06:58.406Z,25.80
2024-01-25T07:09:25.457Z,28.83
2024-01-25T07:11:52.678Z,24.75
2024-01-25T07:14:19.605Z,31.17
2024-01-25T07:16:46.614Z,32.63
2024-01-25T07:19:16.577Z,25.52
2024-01-25T07:21:46.702Z,28.38
2024-01-25T07:26:40.805Z,33.65
2024-01-25T07:29:07.738Z,30.77
2024-01-25T07:31:34.721Z,29.67
2024-01-25T07:34:01.854Z,29.23
2024-01-25T07:36:28.945Z,29.08
2024-01-25T07:38:55.998Z,34.38
2024-01-25T07:41:23.581Z,36.22
2024-01-25T07:43:50.525Z,37.97
2024-01-25T07:46:18.606Z,29.98
2024-01-25T07:48:45.765Z,27.95
2024-01-25T07:51:14.699Z,34.38
2024-01-25T07:53:41.890Z,41.00
2024-01-25T07:56:09.867Z,26.08
2024-01-25T07:58:37.682Z,32.13
2024-01-25T08:01:08.485Z,32.15
2024-01-25T08:03:35.782Z,33.95
2024-01-25T08:06:07.255Z,31.08
2024-01-25T08:08:37.102Z,34.63
2024-01-25T08:11:05.491Z,26.20
2024-01-25T08:13:35.633Z,24.00
2024-01-25T08:16:03.311Z,25.65
2024-01-25T08:18:31.493Z,24.15
2024-01-25T08:20:59.059Z,30.38
2024-01-25T08:23:26.107Z,27.52
2024-01-25T08:25:53.146Z,32.10
2024-01-25T08:28:21.047Z,32.03
2024-01-25T08:30:48.559Z,32.25
2024-01-25T08:33:15.996Z,39.38
2024-01-25T08:35:43.446Z,27.20
2024-01-25T08:38:10.509Z,30.98
2024-01-25T08:40:37.607Z,28.05
2024-01-25T08:43:05.942Z,28.50
2024-01-25T08:45:33.423Z,22.73
2024-01-25T08:48:01.341Z,27.83
2024-01-25T08:50:28.843Z,23.15
2024-01-25T08:52:56.481Z,25.83
2024-01-25T08:55:23.732Z,29.15
2024-01-25T08:57:51.356Z,35.83
2024-01-25T09:00:19.424Z,25.50
2024-01-25T09:02:46.920Z,35.20
2024-01-25T09:05:14.118Z,28.00
2024-01-25T09:07:41.385Z,27.30
2024-01-25T09:10:09.279Z,28.77
2024-01-25T09:12:38.836Z,25.23
2024-01-25T09:15:06.543Z,31.08
2024-01-25T09:17:33.755Z,29.58
2024-01-25T09:20:01.671Z,31.75
2024-01-25T09:22:29.036Z,39.50
2024-01-25T09:24:56.174Z,34.78
2024-01-25T09:27:23.205Z,32.33
2024-01-25T09:29:50.461Z,29.48
2024-01-25T09:32:18.316Z,31.98
2024-01-25T09:34:45.547Z,25.70
2024-01-25T09:37:12.838Z,30.00
2024-01-25T09:39:40.152Z,30.30
2024-01-25T09:42:08.480Z,30.77
2024-01-25T09:44:35.704Z,29.92
2024-01-25T09:47:06.752Z,26.42
2024-01-25T09:49:34.467Z,37.08
2024-01-25T09:52:07.012Z,29.88
2024-01-25T09:54:39.880Z,26.60
2024-01-25T09:57:24.550Z,28.55
2024-01-25T10:00:01.881Z,36.33
2024-01-25T10:02:32.052Z,30.23
2024-01-25T10:05:05.855Z,21.77
2024-01-25T10:07:44.567Z,31.85
2024-01-25T10:10:13.794Z,24.27
2024-01-25T10:12:46.073Z,27.43
2024-01-25T10:15:13.186Z,23.60
2024-01-25T10:17:58.640Z,30.08
2024-01-25T10:20:29.832Z,23.30
2024-01-25T10:23:00.499Z,30.88
2024-01-25T10:25:28.977Z,21.58
2024-01-25T10:27:56.521Z,26.27
2024-01-25T10:30:28.488Z,25.70
2024-01-25T10:32:56.755Z,27.83
2024-01-25T10:35:25.707Z,24.23
2024-01-25T10:37:56.792Z,32.47
2024-01-25T10:40:24.522Z,23.92
2024-01-25T10:42:52.690Z,22.48
2024-01-25T10:45:20.303Z,32.55
2024-01-25T10:47:50.394Z,33.25
2024-01-25T10:52:46.072Z,25.88
2024-01-25T10:55:14.489Z,31.95
2024-01-25T10:57:46.406Z,24.02
2024-01-25T11:00:16.453Z,25.92
2024-01-25T11:02:45.568Z,23.38
2024-01-25T11:05:18.908Z,26.95
2024-01-25T11:07:51.669Z,35.97
2024-01-25T11:10:25.228Z,26.48
2024-01-25T11:13:00.703Z,21.77
2024-01-25T11:15:36.411Z,30.52
2024-01-25T11:18:08.416Z,22.10
2024-01-25T11:20:37.883Z,24.23
2024-01-25T11:23:10.375Z,31.85
2024-01-25T11:25:40.239Z,23.67
2024-01-25T11:28:11.730Z,21.08
2024-01-25T11:30:39.213Z,23.15
2024-01-25T11:33:08.635Z,25.58
2024-01-25T11:35:36.448Z,26.27
2024-01-25T11:38:03.774Z,25.27
2024-01-25T11:40:34.311Z,25.45
2024-01-25T11:43:04.178Z,29.63
2024-01-25T11:45:31.330Z,20.73
2024-01-25T11:47:58.560Z,20.92
2024-01-25T11:50:26.025Z,24.50
2024-01-25T11:52:53.153Z,21.88
2024-01-25T11:55:20.315Z,22.52
2024-01-25T11:57:50.899Z,27.48
2024-01-25T12:00:19.188Z,18.33
2024-01-25T12:02:46.212Z,24.77
2024-01-25T12:05:14.923Z,30.25
2024-01-25T12:07:42.316Z,21.95
2024-01-25T12:10:18.057Z,23.27
2024-01-25T12:12:45.445Z,33.70
2024-01-25T12:15:12.738Z,24.40
2024-01-25T12:17:41.776Z,29.70
2024-01-25T12:20:12.998Z,25.23
2024-01-25T12:22:40.514Z,20.77
2024-01-25T12:25:11.766Z,21.17
2024-01-25T12:27:46.847Z,20.27
2024-01-25T12:30:14.299Z,27.95
2024-01-25T12:32:41.506Z,18.63
2024-01-25T12:35:10.017Z,25.83
2024-01-25T12:37:37.448Z,18.20
2024-01-25T12:40:05.483Z,15.32
2024-01-25T12:42:32.970Z,14.85
2024-01-25T12:45:00.097Z,18.35
2024-01-25T12:47:28.161Z,17.67
2024-01-25T12:49:55.350Z,17.77
2024-01-25T12:52:22.746Z,21.92
2024-01-25T12:54:49.891Z,15.27
2024-01-25T12:57:17.067Z,17.48
2024-01-25T12:59:44.319Z,17.40
2024-01-25T13:02:13.385Z,20.52
2024-01-25T13:04:40.587Z,21.25
2024-01-25T13:07:07.655Z,20.40
2024-01-25T13:09:41.539Z,22.80
2024-01-25T13:12:08.807Z,21.45
2024-01-25T13:14:35.899Z,14.77
2024-01-25T13:17:03.034Z,23.88
2024-01-25T13:19:30.248Z,16.15
2024-01-25T13:21:57.366Z,17.08
2024-01-25T13:24:24.520Z,19.98
2024-01-25T13:26:51.763Z,17.63
2024-01-25T13:29:19.369Z,16.52
2024-01-25T13:31:46.789Z,17.38
2024-01-25T13:34:14.357Z,16.48
2024-01-25T13:36:42.595Z,14.20
2024-01-25T13:39:11.242Z,17.10
2024-01-25T13:41:38.279Z,17.17
2024-01-25T13:44:05.246Z,15.32
2024-01-25T13:46:34.793Z,16.55
2024-01-25T13:49:05.162Z,20.92
2024-01-25T13:51:32.447Z,19.92
2024-01-25T13:53:59.472Z,18.67
2024-01-25T13:56:26.647Z,15.18
2024-01-25T13:58:53.792Z,13.95
2024-01-25T14:01:21.622Z,14.40
2024-01-25T14:03:49.104Z,14.50
2024-01-25T14:06:16.454Z,13.13
2024-01-25T14:08:43.734Z,11.57
2024-01-25T14:11:11.523Z,13.75
2024-01-25T14:13:38.753Z,13.27
2024-01-25T14:16:06.132Z,12.38
2024-01-25T14:18:38.888Z,19.20
2024-01-25T14:21:06.294Z,15.23
2024-01-25T14:23:36.359Z,17.45
2024-01-25T14:26:04.140Z,16.20
2024-01-25T14:28:31.572Z,16.23
2024-01-25T14:30:58.785Z,15.90
2024-01-25T14:33:26.237Z,16.13
2024-01-25T14:35:53.365Z,16.00
2024-01-25T14:38:20.465Z,15.68
2024-01-25T14:40:56.755Z,10.98
2024-01-25T14:43:26.676Z,17.15
2024-01-25T14:45:56.860Z,19.67
2024-01-25T14:50:51.339Z,17.65
2024-01-25T14:53:19.615Z,16.85
2024-01-25T14:55:46.797Z,12.85
2024-01-25T14:58:17.350Z,13.95
2024-01-25T15:00:45.796Z,17.17
2024-01-25T15:03:13.210Z,15.70
2024-01-25T15:05:40.303Z,18.35
2024-01-25T15:08:07.376Z,16.67
2024-01-25T15:10:34.639Z,17.00
2024-01-25T15:13:01.854Z,19.85
2024-01-25T15:15:29.484Z,20.90
2024-01-25T15:17:56.764Z,17.42
2024-01-25T15:20:23.994Z,14.23
2024-01-25T15:22:52.492Z,15.15
2024-01-25T15:25:19.868Z,15.50
2024-01-25T15:27:47.033Z,19.40
2024-01-25T15:30:14.302Z,16.30
2024-01-25T15:32:42.683Z,11.18
2024-01-25T15:35:10.360Z,15.13
2024-01-25T15:37:38.578Z,18.42
2024-01-25T15:40:11.908Z,17.33
2024-01-25T15:42:43.754Z,13.15
2024-01-25T15:45:11.293Z,14.35
2024-01-25T15:47:38.690Z,13.43
2024-01-25T15:50:06.479Z,12.63
2024-01-25T15:52:34.828Z,14.57
2024-01-25T15:55:02.367Z,12.38
2024-01-25T15:57:32.481Z,12.50
2024-01-25T16:00:00.876Z,13.32
2024-01-25T16:02:30.974Z,12.90
2024-01-25T16:04:58.024Z,13.18
2024-01-25T16:07:25.190Z,13.70
2024-01-25T16:09:52.445Z,13.50
2024-01-25T16:12:20.230Z,17.67
2024-01-25T16:14:48.603Z,12.57
2024-01-25T16:17:18.816Z,10.07
2024-01-25T16:22:14.845Z,11.63
2024-01-25T16:24:42.218Z,12.55
2024-01-25T16:27:12.111Z,17.05
2024-01-25T16:29:39.476Z,20.65
2024-01-25T16:32:10.077Z,13.30
2024-01-25T16:34:37.611Z,16.67
2024-01-25T16:37:05.021Z,14.50
2024-01-25T16:39:32.034Z,11.98
2024-01-25T16:41:59.094Z,14.02
2024-01-25T16:44:26.141Z,18.10
2024-01-25T16:46:53.120Z,15.40
2024-01-25T16:49:20.323Z,11.68
2024-01-25T16:51:47.709Z,13.77
2024-01-25T16:54:16.539Z,13.75
2024-01-25T16:56:48.796Z,9.60
2024-01-25T16:59:19.424Z,11.95
2024-01-25T17:01:46.524Z,8.23
2024-01-25T17:04:14.154Z,8.27
2024-01-25T17:06:43.276Z,9.00
2024-01-25T17:09:11.044Z,12.07
2024-01-25T17:11:38.187Z,10.85
2024-01-25T17:14:09.264Z,9.45
2024-01-25T17:16:36.636Z,10.18
2024-01-25T17:19:04.785Z,7.40
2024-01-25T17:21:32.965Z,9.05
2024-01-25T17:24:00.355Z,6.22
2024-01-25T17:26:27.612Z,10.45
2024-01-25T17:28:57.730Z,8.45
2024-01-25T17:31:24.777Z,14.32
2024-01-25T17:33:52.301Z,13.40
2024-01-25T17:36:19.577Z,8.77
2024-01-25T17:38:46.659Z,8.63
2024-01-25T17:41:13.768Z,8.77
2024-01-25T17:43:46.456Z,13.45
2024-01-25T17:46:13.816Z,9.15
2024-01-25T17:48:41.141Z,8.35
2024-01-25T17:51:08.335Z,9.02
2024-01-25T17:53:36.657Z,8.85
2024-01-25T17:56:04.057Z,12.30
2024-01-25T17:58:31.043Z,13.10
2024-01-25T18:00:58.414Z,11.02
2024-01-25T18:03:25.575Z,9.50
2024-01-25T18:05:53.658Z,9.48
2024-01-25T18:08:20.960Z,8.63
2024-01-25T18:10:48.210Z,14.27
2024-01-25T18:13:18.253Z,10.45
2024-01-25T18:15:45.351Z,8.70
2024-01-25T18:18:12.594Z,12.50
2024-01-25T18:20:39.764Z,8.00
2024-01-25T18:23:07.018Z,8.75
2024-01-25T18:25:34.156Z,9.07
2024-01-25T18:28:04.257Z,8.75
2024-01-25T18:32:58.480Z,8.55
2024-01-25T18:35:25.705Z,7.40
2024-01-25T18:37:52.785Z,10.63
2024-01-25T18:40:22.586Z,8.70
2024-01-25T18:42:52.303Z,11.10
2024-01-25T18:45:20.354Z,9.30
2024-01-25T18:47:47.600Z,16.73
2024-01-25T18:50:14.951Z,12.45
2024-01-25T18:52:42.168Z,13.40
2024-01-25T18:55:10.939Z,10.35
2024-01-25T18:57:41.984Z,11.55
2024-01-25T19:00:13.072Z,11.23
2024-01-25T19:02:43.600Z,13.90
2024-01-25T19:05:11.633Z,9.15
2024-01-25T19:07:40.749Z,8.85
2024-01-25T19:10:08.594Z,12.77
2024-01-25T19:12:36.602Z,17.63
2024-01-25T19:15:05.832Z,16.70
2024-01-25T19:17:33.006Z,10.63
2024-01-25T19:20:00.777Z,12.27
2024-01-25T19:22:28.116Z,12.75
2024-01-25T19:24:55.288Z,13.23
2024-01-25T19:27:22.708Z,10.73
2024-01-25T19:29:49.983Z,13.25
2024-01-25T19:32:17.067Z,11.13
2024-01-25T19:34:44.362Z,10.18
2024-01-25T19:37:11.692Z,11.88
2024-01-25T19:39:39.195Z,11.00
2024-01-25T19:42:07.203Z,13.27
2024-01-25T19:44:35.526Z,14.27
2024-01-25T19:47:02.804Z,12.57
2024-01-25T19:49:30.522Z,15.90
2024-01-25T19:51:57.760Z,16.23
2024-01-25T19:54:30.108Z,13.55
2024-01-25T19:57:07.444Z,16.88
2024-01-25T19:59:54.441Z,17.40
2024-01-25T20:02:35.154Z,16.67
2024-01-25T20:08:13.411Z,18.63
2024-01-25T20:10:45.081Z,20.73
2024-01-25T20:13:12.306Z,16.00
2024-01-25T20:15:39.576Z,16.00
2024-01-25T20:18:07.080Z,19.88
2024-01-25T20:20:42.962Z,17.63
2024-01-25T20:23:15.715Z,25.55
2024-01-25T20:25:44.111Z,28.42
2024-01-25T20:28:11.435Z,25.27
2024-01-25T20:30:40.235Z,30.15
2024-01-25T20:33:07.795Z,30.45
2024-01-25T20:35:35.308Z,29.13
2024-01-25T20:38:16.691Z,22.00
2024-01-25T20:40:44.851Z,23.10
2024-01-25T20:43:12.056Z,21.02
2024-01-25T20:45:41.435Z,15.98
2024-01-25T20:48:09.346Z,17.00
2024-01-25T20:50:39.046Z,16.58
2024-01-25T20:55:38.636Z,16.48
2024-01-25T20:58:06.046Z,25.73
2024-01-25T21:00:33.331Z,26.67
2024-01-25T21:03:01.316Z,36.97
2024-01-25T21:05:29.151Z,24.67
2024-01-25T21:07:57.532Z,25.50
2024-01-25T21:10:25.309Z,32.67
2024-01-25T21:12:52.800Z,26.15
2024-01-25T21:15:20.804Z,16.83
2024-01-25T21:17:48.003Z,20.25
2024-01-25T21:20:15.174Z,17.10
2024-01-25T21:22:42.470Z,20.58
2024-01-25T21:25:11.964Z,20.92
2024-01-25T21:27:39.571Z,13.80
2024-01-25T21:30:07.632Z,14.75
2024-01-25T21:32:34.892Z,15.73
2024-01-25T21:35:02.303Z,15.77
2024-01-25T21:37:29.906Z,19.63
2024-01-25T21:39:58.085Z,14.73
2024-01-25T21:42:27.685Z,16.17
2024-01-25T21:44:54.919Z,18.48
2024-01-25T21:47:22.662Z,15.20
2024-01-25T21:49:50.319Z,20.92
2024-01-25T21:52:19.416Z,15.32
2024-01-25T21:54:49.298Z,13.77
2024-01-25T21:57:16.630Z,16.38
2024-01-25T21:59:43.930Z,16.20
2024-01-25T22:02:11.266Z,14.63
2024-01-25T22:04:40.447Z,14.10
2024-01-25T22:07:08.459Z,18.80
2024-01-25T22:09:35.770Z,17.27
2024-01-25T22:12:02.840Z,18.08
2024-01-25T22:14:32.889Z,18.85
2024-01-25T22:17:00.080Z,15.73
2024-01-25T22:19:27.198Z,16.02
2024-01-25T22:21:54.291Z,14.63
2024-01-25T22:24:21.311Z,17.17
2024-01-25T22:26:48.352Z,14.07
2024-01-25T22:29:15.706Z,15.05
2024-01-25T22:31:43.023Z,16.10
2024-01-25T22:34:10.317Z,15.40
2024-01-25T22:36:37.523Z,16.10
2024-01-25T22:39:05.001Z,21.85
2024-01-25T22:41:32.003Z,23.45
2024-01-25T22:43:59.053Z,21.25
2024-01-25T22:46:28.859Z,17.73
2024-01-25T22:48:56.955Z,17.33
2024-01-25T22:51:24.014Z,19.92
2024-01-25T22:53:51.585Z,19.00
2024-01-25T22:56:19.835Z,20.00
2024-01-25T22:58:46.984Z,20.20
2024-01-25T23:01:14.203Z,20.92
2024-01-25T23:03:43.463Z,21.55
2024-01-25T23:06:10.957Z,18.92
2024-01-25T23:08:38.630Z,24.98
2024-01-25T23:11:07.075Z,21.15
2024-01-25T23:13:35.434Z,21.25
2024-01-25T23:16:04.562Z,22.20
2024-01-25T23:18:31.849Z,21.45
2024-01-25T23:20:58.817Z,23.33
2024-01-25T23:23:26.076Z,20.38
2024-01-25T23:25:53.380Z,19.17
2024-01-25T23:28:20.376Z,24.33
2024-01-25T23:30:47.415Z,21.73
2024-01-25T23:33:16.554Z,20.98
2024-01-25T23:35:44.730Z,26.90
2024-01-25T23:38:11.698Z,21.58
2024-01-25T23:40:38.942Z,23.42
2024-01-25T23:43:06.448Z,21.88
2024-01-25T23:45:34.001Z,21.13
2024-01-25T23:48:01.192Z,19.45
2024-01-25T23:50:28.462Z,19.40
2024-01-25T23:52:55.653Z,22.25
2024-01-25T23:55:22.742Z,22.45
2024-01-25T23:57:52.849Z,21.58
